Time;durP1;ratioP1;P1;durP2;ratioP2;P2;SDS_P1;SDS_P2;PMS_P1;PMS_P2;Temp;Humidity;BMP_temperature;BMP_pressure;BME280_temperature;BME280_humidity;BME280_pressure;Samples;Min_cycle;Max_cycle;Signal;HPM_P1;HPM_P2
2024/03/01 00:02:01;;;;;;;59.13;25.07;;;5.80;83.70;;;;;;5010881;28;20460;-72
2024/03/01 00:04:26;;;;;;;43.17;20.50;;;5.90;83.70;;;;;;5013568;28;20239;-70
2024/03/01 00:06:52;;;;;;;50.40;22.40;;;5.90;83.70;;;;;;5014012;28;20185;-72
2024/03/01 00:09:17;;;;;;;55.83;21.73;;;6.00;83.60;;;;;;5013704;28;20620;-71
2024/03/01 00:11:43;;;;;;;48.87;21.67;;;6.00;83.60;;;;;;5010370;28;20213;-72
2024/03/01 00:14:09;;;;;;;53.27;22.53;;;6.00;83.40;;;;;;5013455;28;20202;-72
2024/03/01 00:16:34;;;;;;;56.67;23.70;;;6.10;83.60;;;;;;5013486;28;20464;-72
2024/03/01 00:19:00;;;;;;;57.43;25.50;;;6.10;83.60;;;;;;5013164;28;20244;-72
2024/03/01 00:21:26;;;;;;;58.30;24.40;;;6.00;83.40;;;;;;5010170;28;20215;-71
2024/03/01 00:23:52;;;;;;;57.50;25.20;;;5.90;83.70;;;;;;5012847;28;20264;-71
2024/03/01 00:26:18;;;;;;;58.23;26.67;;;5.90;83.80;;;;;;5013839;28;20996;-72
2024/03/01 00:28:43;;;;;;;57.97;23.97;;;5.90;84.00;;;;;;5013479;28;20213;-72
2024/03/01 00:31:09;;;;;;;52.27;24.83;;;6.00;84.10;;;;;;5010693;28;20719;-71
2024/03/01 00:33:35;;;;;;;55.20;21.33;;;6.10;83.70;;;;;;5014193;28;20188;-71
2024/03/01 00:36:00;;;;;;;57.30;23.00;;;6.20;83.30;;;;;;5013354;28;20190;-71
2024/03/01 00:38:26;;;;;;;45.47;22.13;;;6.30;83.00;;;;;;5013260;28;20190;-72
2024/03/01 00:40:52;;;;;;;58.03;26.20;;;6.30;82.70;;;;;;5010460;28;20209;-73
2024/03/01 00:43:18;;;;;;;56.57;23.40;;;6.20;82.40;;;;;;5016462;28;20206;-71
2024/03/01 00:45:44;;;;;;;57.57;23.80;;;6.10;82.70;;;;;;5018609;28;20424;-71
2024/03/01 00:48:11;;;;;;;53.00;23.20;;;6.00;83.00;;;;;;5015817;28;20608;-70
2024/03/01 00:50:37;;;;;;;50.43;22.13;;;6.00;83.30;;;;;;5014852;28;20679;-70
2024/03/01 00:53:04;;;;;;;55.37;22.77;;;6.10;83.10;;;;;;5013176;28;20487;-69
2024/03/01 00:55:34;;;;;;;57.03;23.70;;;6.10;83.10;;;;;;5012044;28;20479;-71
2024/03/01 00:58:00;;;;;;;59.30;24.87;;;6.20;83.00;;;;;;5023602;28;20439;-72
2024/03/01 01:00:27;;;;;;;58.43;23.97;;;6.00;82.70;;;;;;5010967;28;20436;-70
2024/03/01 01:02:53;;;;;;;55.57;22.90;;;6.00;83.30;;;;;;5013208;28;20420;-72
2024/03/01 01:05:18;;;;;;;53.63;22.53;;;6.00;83.60;;;;;;5012318;28;20801;-70
2024/03/01 01:07:44;;;;;;;48.30;20.37;;;6.00;83.70;;;;;;5012631;28;20196;-72
2024/03/01 01:10:10;;;;;;;54.10;24.13;;;6.10;84.00;;;;;;5012243;28;20216;-72
2024/03/01 01:12:37;;;;;;;51.83;23.20;;;6.10;84.00;;;;;;5009709;28;20708;-71
2024/03/01 01:15:02;;;;;;;55.10;23.57;;;6.10;84.00;;;;;;5012260;28;20231;-72
2024/03/01 01:17:28;;;;;;;54.83;22.20;;;6.10;83.70;;;;;;5012031;28;20540;-71
2024/03/01 01:19:58;;;;;;;45.87;20.43;;;6.10;83.60;;;;;;5012138;28;20190;-71
2024/03/01 01:22:26;;;;;;;48.37;20.73;;;6.20;83.60;;;;;;5009684;28;20210;-70
2024/03/01 01:24:52;;;;;;;56.27;24.87;;;6.30;83.10;;;;;;5011806;28;20899;-72
2024/03/01 01:27:18;;;;;;;49.57;22.50;;;6.30;82.70;;;;;;5012809;28;20432;-72
2024/03/01 01:29:44;;;;;;;52.73;22.70;;;6.20;82.40;;;;;;5012229;28;20465;-71
2024/03/01 01:32:10;;;;;;;55.07;24.60;;;6.10;82.50;;;;;;5009404;28;20235;-71
2024/03/01 01:34:35;;;;;;;53.40;22.80;;;6.00;82.70;;;;;;5012353;28;20186;-71
2024/03/01 01:37:03;;;;;;;49.70;22.03;;;6.00;83.00;;;;;;5016137;28;20549;-70
2024/03/01 01:39:29;;;;;;;47.87;22.43;;;6.10;83.30;;;;;;5012700;28;20209;-72
2024/03/01 01:41:55;;;;;;;47.77;22.43;;;6.20;83.10;;;;;;5009327;28;20499;-72
2024/03/01 01:44:20;;;;;;;54.70;23.30;;;6.20;83.10;;;;;;5011022;28;20445;-71
2024/03/01 01:46:48;;;;;;;55.00;25.53;;;6.30;83.10;;;;;;5012264;28;20190;-70
2024/03/01 01:49:16;;;;;;;53.23;24.63;;;6.30;83.00;;;;;;5009712;28;20194;-71
2024/03/01 01:51:42;;;;;;;59.77;23.83;;;6.20;82.80;;;;;;5014581;28;20876;-70
2024/03/01 01:54:09;;;;;;;48.10;21.53;;;6.20;83.00;;;;;;5013936;28;20441;-70
2024/03/01 01:56:36;;;;;;;54.10;22.07;;;6.20;83.10;;;;;;5012807;28;20424;-70
2024/03/01 01:59:02;;;;;;;53.60;22.90;;;6.30;83.30;;;;;;5012513;28;20995;-69
2024/03/01 02:01:28;;;;;;;53.07;22.23;;;6.40;83.10;;;;;;5009837;28;20452;-69
2024/03/01 02:03:55;;;;;;;57.30;24.07;;;6.50;82.80;;;;;;5012418;28;20436;-73
2024/03/01 02:06:20;;;;;;;51.80;21.30;;;6.50;82.80;;;;;;5011351;28;20420;-71
2024/03/01 02:08:48;;;;;;;46.50;23.27;;;6.40;82.50;;;;;;5012845;28;20409;-71
2024/03/01 02:11:13;;;;;;;48.43;23.90;;;6.40;82.70;;;;;;5009982;28;20218;-72
2024/03/01 02:13:39;;;;;;;44.07;21.23;;;6.50;82.80;;;;;;5012915;28;20496;-70
2024/03/01 02:16:05;;;;;;;50.27;22.60;;;6.60;82.70;;;;;;5015143;28;20189;-70
2024/03/01 02:18:33;;;;;;;54.37;22.70;;;6.60;82.50;;;;;;5015462;28;20193;-71
2024/03/01 02:21:12;;;;;;;48.77;21.50;;;6.70;82.40;;;;;;5010865;28;20209;-71
2024/03/01 02:23:38;;;;;;;55.53;23.50;;;6.70;82.40;;;;;;5013318;28;20591;-72
2024/03/01 02:26:05;;;;;;;49.07;22.33;;;6.70;81.90;;;;;;5012963;28;20548;-73
2024/03/01 02:28:31;;;;;;;61.33;25.13;;;6.70;82.10;;;;;;5013263;28;20429;-70
2024/03/01 02:30:57;;;;;;;54.67;23.63;;;6.70;81.90;;;;;;5008623;28;20484;-72
2024/03/01 02:33:23;;;;;;;52.10;20.57;;;6.70;81.90;;;;;;5010872;28;20778;-71
2024/03/01 02:35:49;;;;;;;63.17;25.47;;;6.70;81.80;;;;;;5011118;28;20281;-71
2024/03/01 02:38:15;;;;;;;49.70;23.00;;;6.60;81.70;;;;;;5011167;28;20455;-70
2024/03/01 02:40:41;;;;;;;56.73;25.10;;;6.50;82.10;;;;;;5008330;28;20464;-71
2024/03/01 02:43:07;;;;;;;52.30;23.43;;;6.60;82.40;;;;;;5011499;28;20188;-71
2024/03/01 02:45:34;;;;;;;50.70;22.90;;;6.60;82.10;;;;;;5014821;28;20420;-71
2024/03/01 02:47:59;;;;;;;52.07;22.00;;;6.60;82.20;;;;;;5010215;28;20417;-72
2024/03/01 02:50:25;;;;;;;51.90;24.00;;;6.50;82.20;;;;;;5009806;28;20534;-70
2024/03/01 02:52:51;;;;;;;50.93;22.73;;;6.50;82.50;;;;;;4992704;28;20197;-71
2024/03/01 02:55:22;;;;;;;44.80;21.40;;;6.40;82.50;;;;;;5010735;28;20217;-71
2024/03/01 02:57:51;;;;;;;53.43;22.87;;;6.50;82.80;;;;;;5010733;28;20690;-72
2024/03/01 03:00:18;;;;;;;50.90;22.30;;;6.50;83.00;;;;;;5010353;28;20487;-70
2024/03/01 03:02:44;;;;;;;52.07;22.27;;;6.60;82.70;;;;;;5008728;28;20444;-71
2024/03/01 03:05:10;;;;;;;54.73;22.50;;;6.60;82.80;;;;;;5010159;28;20846;-71
2024/03/01 03:07:37;;;;;;;61.13;24.97;;;6.60;82.80;;;;;;5010171;28;20212;-71
2024/03/01 03:10:03;;;;;;;51.63;22.80;;;6.70;82.80;;;;;;5010117;28;20490;-73
2024/03/01 03:12:29;;;;;;;53.40;22.67;;;6.60;82.80;;;;;;5007979;28;20893;-71
2024/03/01 03:14:55;;;;;;;50.20;21.40;;;6.60;83.00;;;;;;5011525;28;20425;-72
2024/03/01 03:17:22;;;;;;;41.47;21.30;;;6.70;83.10;;;;;;5009802;28;20663;-70
2024/03/01 03:19:49;;;;;;;49.50;21.87;;;6.80;83.00;;;;;;5010117;28;20224;-71
2024/03/01 03:22:14;;;;;;;46.10;21.73;;;6.90;82.70;;;;;;5007870;28;20504;-72
2024/03/01 03:24:40;;;;;;;52.67;22.87;;;6.80;82.50;;;;;;5012427;28;20464;-72
2024/03/01 03:27:06;;;;;;;49.70;21.30;;;6.70;82.50;;;;;;5006288;28;20436;-71
2024/03/01 03:29:32;;;;;;;51.23;21.83;;;6.60;82.70;;;;;;5009843;28;20214;-71
2024/03/01 03:31:58;;;;;;;56.87;22.30;;;6.70;83.00;;;;;;5004777;28;20464;-71
2024/03/01 03:34:24;;;;;;;46.07;21.17;;;6.70;83.00;;;;;;5009626;28;20425;-71
2024/03/01 03:36:50;;;;;;;50.63;23.13;;;6.80;83.00;;;;;;5009888;28;20273;-71
2024/03/01 03:39:15;;;;;;;47.20;21.77;;;6.80;82.80;;;;;;5005482;28;20186;-71
2024/03/01 03:41:43;;;;;;;58.87;23.73;;;6.70;82.80;;;;;;5008091;28;20452;-72
2024/03/01 03:44:08;;;;;;;49.20;21.73;;;6.80;83.00;;;;;;5009608;28;20203;-69
2024/03/01 03:46:35;;;;;;;54.87;22.63;;;6.90;82.80;;;;;;5009688;28;20425;-71
2024/03/01 03:49:01;;;;;;;54.53;23.27;;;7.00;82.10;;;;;;5009061;28;20233;-70
2024/03/01 03:51:29;;;;;;;57.17;23.10;;;7.00;81.90;;;;;;5007062;28;20480;-71
2024/03/01 03:53:56;;;;;;;48.30;21.07;;;6.90;81.80;;;;;;5009778;28;20425;-71
2024/03/01 03:56:23;;;;;;;55.37;23.20;;;6.90;81.90;;;;;;5010761;28;20552;-72
2024/03/01 03:58:49;;;;;;;54.10;23.97;;;6.90;81.90;;;;;;5009468;28;20421;-71
2024/03/01 04:01:19;;;;;;;47.93;21.37;;;6.90;81.90;;;;;;5008289;28;20526;-71
2024/03/01 04:03:45;;;;;;;52.40;21.70;;;7.00;82.20;;;;;;5009897;28;20483;-71
2024/03/01 04:06:11;;;;;;;52.77;23.07;;;7.00;81.70;;;;;;5009431;28;20425;-71
2024/03/01 04:08:40;;;;;;;54.67;23.30;;;7.00;81.70;;;;;;5008929;28;20178;-72
2024/03/01 04:11:06;;;;;;;58.10;21.17;;;7.00;81.80;;;;;;5006943;28;20210;-71
2024/03/01 04:13:33;;;;;;;51.30;22.43;;;7.00;82.10;;;;;;5009678;28;20468;-71
2024/03/01 04:15:59;;;;;;;48.13;22.53;;;7.10;82.20;;;;;;5009510;28;20428;-71
2024/03/01 04:18:27;;;;;;;63.17;24.97;;;7.00;82.10;;;;;;5008702;28;20856;-72
2024/03/01 04:20:57;;;;;;;45.67;21.13;;;6.80;82.10;;;;;;5007109;28;20853;-71
2024/03/01 04:23:23;;;;;;;46.53;20.40;;;6.90;82.40;;;;;;5009481;28;21143;-72
2024/03/01 04:25:51;;;;;;;59.80;24.00;;;7.00;82.50;;;;;;5009183;28;20448;-71
2024/03/01 04:28:20;;;;;;;55.27;25.30;;;7.10;82.20;;;;;;5010134;28;20428;-73
2024/03/01 04:30:46;;;;;;;52.30;22.97;;;7.10;82.10;;;;;;5006202;28;20484;-73
2024/03/01 04:33:12;;;;;;;51.53;21.97;;;7.20;81.80;;;;;;5009413;28;20491;-71
2024/03/01 04:35:39;;;;;;;59.07;23.10;;;7.20;81.50;;;;;;5009898;28;20182;-71
2024/03/01 04:38:07;;;;;;;56.43;22.50;;;7.30;80.80;;;;;;5008662;28;20459;-73
2024/03/01 04:40:33;;;;;;;48.80;22.57;;;7.20;80.80;;;;;;5006152;28;20617;-71
2024/03/01 04:42:59;;;;;;;51.20;21.97;;;7.20;80.90;;;;;;5011919;28;20428;-72
2024/03/01 04:45:25;;;;;;;58.97;23.80;;;7.10;80.80;;;;;;5012051;28;20470;-70
2024/03/01 04:47:51;;;;;;;57.73;24.03;;;6.90;81.20;;;;;;5012842;28;20465;-71
2024/03/01 04:50:17;;;;;;;53.70;22.37;;;7.00;81.70;;;;;;5012437;28;20508;-71
2024/03/01 04:52:42;;;;;;;56.23;21.87;;;7.00;81.70;;;;;;5010750;28;20269;-69
2024/03/01 04:55:09;;;;;;;58.77;23.20;;;7.10;81.70;;;;;;5012535;28;20190;-72
2024/03/01 04:57:37;;;;;;;56.70;23.50;;;7.00;81.10;;;;;;5013910;28;20198;-71
2024/03/01 05:00:11;;;;;;;51.10;22.50;;;7.00;81.40;;;;;;5011968;28;20424;-73
2024/03/01 05:02:43;;;;;;;56.77;24.60;;;7.00;81.50;;;;;;5009605;28;20435;-71
2024/03/01 05:05:13;;;;;;;64.97;24.67;;;6.90;81.40;;;;;;5013020;28;21298;-71
2024/03/01 05:07:39;;;;;;;54.23;23.43;;;6.80;81.80;;;;;;5012738;28;20567;-72
2024/03/01 05:10:08;;;;;;;52.37;23.57;;;6.70;82.10;;;;;;5011875;28;21261;-71
2024/03/01 05:12:42;;;;;;;58.23;24.00;;;6.70;82.20;;;;;;5009935;28;20209;-71
2024/03/01 05:15:08;;;;;;;55.87;23.93;;;6.70;82.40;;;;;;5011273;28;20436;-69
2024/03/01 05:17:40;;;;;;;56.33;23.63;;;6.70;82.50;;;;;;5006044;28;20424;-70
2024/03/01 05:20:10;;;;;;;51.20;22.47;;;6.70;82.50;;;;;;5012042;28;20508;-73
2024/03/01 05:22:39;;;;;;;46.87;22.87;;;6.90;82.70;;;;;;5012135;28;20529;-71
2024/03/01 05:25:14;;;;;;;53.13;23.00;;;7.00;82.10;;;;;;5013941;28;20421;-71
2024/03/01 05:27:44;;;;;;;51.03;22.03;;;6.90;81.70;;;;;;5021360;28;20467;-70
2024/03/01 05:30:12;;;;;;;57.93;22.20;;;7.00;81.90;;;;;;5012475;28;20468;-71
2024/03/01 05:32:48;;;;;;;57.20;24.13;;;7.00;81.80;;;;;;5010122;28;20869;-71
2024/03/01 05:35:16;;;;;;;53.17;22.00;;;7.00;81.70;;;;;;5012719;28;20421;-70
2024/03/01 05:37:43;;;;;;;50.83;24.10;;;7.00;81.80;;;;;;5012049;28;20443;-71
2024/03/01 05:40:14;;;;;;;49.97;21.63;;;7.00;81.80;;;;;;5011422;28;20437;-70
2024/03/01 05:42:41;;;;;;;56.03;23.33;;;6.90;81.90;;;;;;5008858;28;20432;-72
2024/03/01 05:45:07;;;;;;;56.03;24.93;;;7.00;82.10;;;;;;5011758;28;20452;-71
2024/03/01 05:47:37;;;;;;;52.80;23.87;;;7.00;82.10;;;;;;5011326;28;20941;-70
2024/03/01 05:50:03;;;;;;;58.90;23.73;;;7.10;81.90;;;;;;5011880;28;20472;-72
2024/03/01 05:52:29;;;;;;;46.33;21.10;;;7.10;81.90;;;;;;5009470;28;20456;-71
2024/03/01 05:54:54;;;;;;;54.43;22.87;;;7.30;81.70;;;;;;5012332;28;20424;-71
2024/03/01 05:57:20;;;;;;;57.47;22.53;;;7.20;81.20;;;;;;5013242;28;20189;-71
2024/03/01 05:59:45;;;;;;;43.60;21.50;;;7.10;81.40;;;;;;5012022;28;20192;-71
2024/03/01 06:02:11;;;;;;;52.53;21.47;;;7.20;81.70;;;;;;5004153;28;20214;-70
2024/03/01 06:04:37;;;;;;;51.43;22.57;;;7.30;81.70;;;;;;5011788;28;20264;-70
2024/03/01 06:07:02;;;;;;;49.70;22.23;;;7.30;81.40;;;;;;5011504;28;20260;-71
2024/03/01 06:09:28;;;;;;;59.27;23.67;;;7.30;81.50;;;;;;5010691;28;20232;-72
2024/03/01 06:11:53;;;;;;;57.50;25.00;;;7.20;81.50;;;;;;5008342;28;20210;-71
2024/03/01 06:14:19;;;;;;;53.40;24.47;;;7.10;81.90;;;;;;5011280;28;20682;-71
2024/03/01 06:16:45;;;;;;;58.07;22.70;;;7.20;82.20;;;;;;5013813;28;20193;-74
2024/03/01 06:19:10;;;;;;;56.87;22.60;;;7.10;82.40;;;;;;5010819;28;20589;-72
2024/03/01 06:21:36;;;;;;;51.33;24.13;;;7.30;82.70;;;;;;5008480;28;20522;-69
2024/03/01 06:24:02;;;;;;;53.00;23.73;;;7.30;82.20;;;;;;5011527;28;20269;-71
2024/03/01 06:26:28;;;;;;;60.53;26.07;;;7.20;82.20;;;;;;5011654;28;20205;-70
2024/03/01 06:28:54;;;;;;;51.83;22.60;;;7.30;82.40;;;;;;5010269;28;20189;-72
2024/03/01 06:31:19;;;;;;;61.43;26.27;;;7.30;82.20;;;;;;5007460;28;20851;-71
2024/03/01 06:33:45;;;;;;;56.87;26.30;;;7.30;82.10;;;;;;5011023;28;20221;-72
2024/03/01 06:36:10;;;;;;;56.53;23.70;;;7.30;82.20;;;;;;5011143;28;20186;-70
2024/03/01 06:38:36;;;;;;;54.90;22.73;;;7.30;82.20;;;;;;5010601;28;20242;-70
2024/03/01 06:41:03;;;;;;;50.70;23.10;;;7.30;82.50;;;;;;4991766;28;20256;-71
2024/03/01 06:43:30;;;;;;;55.63;24.80;;;7.40;83.00;;;;;;5011106;28;20272;-71
2024/03/01 06:45:55;;;;;;;57.93;24.57;;;7.50;82.70;;;;;;5013223;28;20901;-70
2024/03/01 06:48:21;;;;;;;48.73;23.93;;;7.60;82.70;;;;;;5011264;28;20425;-71
2024/03/01 06:50:47;;;;;;;53.60;23.00;;;7.70;82.70;;;;;;5008000;28;20249;-68
2024/03/01 06:53:13;;;;;;;64.00;24.60;;;7.70;82.50;;;;;;5010694;28;20559;-71
2024/03/01 06:55:38;;;;;;;62.67;25.43;;;7.90;82.20;;;;;;5011829;28;20210;-70
2024/03/01 06:58:04;;;;;;;55.23;23.70;;;7.80;81.90;;;;;;5011673;28;20413;-70
2024/03/01 07:00:31;;;;;;;52.03;22.40;;;7.80;81.70;;;;;;5009569;28;20200;-70
2024/03/01 07:02:56;;;;;;;52.97;21.93;;;7.90;81.70;;;;;;5012189;28;20193;-72
2024/03/01 07:05:22;;;;;;;53.13;23.93;;;8.00;80.90;;;;;;5011902;28;20945;-70
2024/03/01 07:07:47;;;;;;;50.33;21.90;;;8.00;80.20;;;;;;5011099;28;20219;-71
2024/03/01 07:10:13;;;;;;;58.83;24.70;;;7.90;80.30;;;;;;5016563;28;20585;-71
2024/03/01 07:12:39;;;;;;;51.33;22.57;;;7.90;80.80;;;;;;5007941;28;20185;-71
2024/03/01 07:15:06;;;;;;;61.50;24.67;;;7.90;80.90;;;;;;5010538;28;20181;-72
2024/03/01 07:17:32;;;;;;;61.60;23.00;;;7.90;80.90;;;;;;4996604;28;20178;-71
2024/03/01 07:19:57;;;;;;;49.40;22.90;;;8.00;81.10;;;;;;5009785;28;20839;-70
2024/03/01 07:22:23;;;;;;;50.10;22.50;;;8.10;80.30;;;;;;5007777;28;20213;-70
2024/03/01 07:24:48;;;;;;;48.37;22.53;;;8.10;80.20;;;;;;5010638;28;20273;-70
2024/03/01 07:27:14;;;;;;;53.37;23.00;;;8.10;80.20;;;;;;5011699;28;20209;-72
2024/03/01 07:29:39;;;;;;;54.40;22.77;;;8.20;80.20;;;;;;5010337;28;20235;-72
2024/03/01 07:32:05;;;;;;;57.20;24.07;;;8.20;79.50;;;;;;5008363;28;20227;-73
2024/03/01 07:34:31;;;;;;;46.07;21.57;;;8.20;79.30;;;;;;5010693;28;20217;-71
2024/03/01 07:36:58;;;;;;;46.80;20.70;;;8.20;79.50;;;;;;5011346;28;20186;-69
2024/03/01 07:39:23;;;;;;;49.10;20.87;;;8.20;79.90;;;;;;5010783;28;20190;-71
2024/03/01 07:41:49;;;;;;;50.33;23.83;;;8.40;79.70;;;;;;5002700;28;20514;-70
2024/03/01 07:44:14;;;;;;;46.93;21.33;;;8.40;79.50;;;;;;5011288;28;20788;-72
2024/03/01 07:46:40;;;;;;;48.00;21.00;;;8.50;79.30;;;;;;5011730;28;20193;-70
2024/03/01 07:49:06;;;;;;;40.73;18.97;;;8.60;78.90;;;;;;5010344;28;20202;-71
2024/03/01 07:51:31;;;;;;;45.80;20.33;;;8.70;77.80;;;;;;5008388;28;20213;-71
2024/03/01 07:53:57;;;;;;;44.60;19.40;;;8.70;77.30;;;;;;5010349;28;20185;-71
2024/03/01 07:56:23;;;;;;;45.23;19.73;;;8.80;77.60;;;;;;5011077;28;20174;-70
2024/03/01 07:59:03;;;;;;;45.70;20.63;;;8.70;77.10;;;;;;5011763;28;20185;-70
2024/03/01 08:01:29;;;;;;;49.33;21.57;;;8.80;77.60;;;;;;5009217;28;20452;-73
2024/03/01 08:03:55;;;;;;;39.57;19.50;;;8.90;77.40;;;;;;5012051;28;20564;-70
2024/03/01 08:06:21;;;;;;;40.93;19.40;;;9.00;76.50;;;;;;5010779;28;20519;-71
2024/03/01 08:08:48;;;;;;;45.83;19.80;;;9.10;75.70;;;;;;5012697;28;20189;-71
2024/03/01 08:11:43;;;;;;;42.07;19.70;;;9.20;75.50;;;;;;5006992;28;20696;-71
2024/03/01 08:14:18;;;;;;;40.30;19.93;;;9.30;75.70;;;;;;5007935;28;20517;-73
2024/03/01 08:16:43;;;;;;;38.17;17.57;;;9.50;75.10;;;;;;5012045;28;20430;-71
2024/03/01 08:19:12;;;;;;;41.67;19.40;;;9.50;75.20;;;;;;5014883;28;20523;-72
2024/03/01 08:21:38;;;;;;;41.43;20.63;;;9.70;74.30;;;;;;5012351;28;20297;-69
2024/03/01 08:24:04;;;;;;;40.37;18.33;;;9.70;74.30;;;;;;5016913;28;20428;-71
2024/03/01 08:26:30;;;;;;;39.67;19.60;;;9.80;74.50;;;;;;5017938;28;21678;-73
2024/03/01 08:29:00;;;;;;;37.00;17.97;;;9.70;73.70;;;;;;5016091;28;20924;-71
2024/03/01 08:31:30;;;;;;;35.77;18.23;;;10.00;73.30;;;;;;5012236;28;20532;-70
2024/03/01 08:34:25;;;;;;;39.83;18.00;;;10.00;72.70;;;;;;5013819;28;20417;-70
2024/03/01 08:36:54;;;;;;;38.20;18.17;;;9.90;73.20;;;;;;5012471;28;20420;-73
2024/03/01 08:39:21;;;;;;;33.20;15.57;;;10.00;73.30;;;;;;5013327;28;20536;-74
2024/03/01 08:41:51;;;;;;;33.30;16.10;;;10.20;73.00;;;;;;5011365;28;20805;-71
2024/03/01 08:44:41;;;;;;;35.80;16.10;;;10.40;72.30;;;;;;5013349;28;20913;-71
2024/03/01 08:47:32;;;;;;;31.07;14.67;;;10.50;69.50;;;;;;5012162;28;20813;-73
2024/03/01 08:50:22;;;;;;;33.13;13.87;;;10.50;68.80;;;;;;5015999;28;20499;-73
2024/03/01 08:52:49;;;;;;;28.10;14.03;;;10.50;68.60;;;;;;5011501;28;20440;-70
2024/03/01 08:55:20;;;;;;;28.30;12.37;;;10.40;68.20;;;;;;5013097;28;20511;-71
2024/03/01 08:57:47;;;;;;;26.93;11.27;;;10.30;68.20;;;;;;5012198;28;21011;-69
2024/03/01 09:00:43;;;;;;;29.87;13.00;;;10.30;67.60;;;;;;5012477;28;20425;-72
2024/03/01 09:03:16;;;;;;;26.53;12.27;;;10.30;67.90;;;;;;5010726;28;21044;-71
2024/03/01 09:05:42;;;;;;;20.97;11.43;;;10.20;67.90;;;;;;5013289;28;20413;-71
2024/03/01 09:08:17;;;;;;;24.83;11.50;;;10.20;67.90;;;;;;5012884;28;20920;-71
2024/03/01 09:10:43;;;;;;;22.30;11.70;;;10.10;67.90;;;;;;5010398;28;20228;-70
2024/03/01 09:13:09;;;;;;;23.53;11.47;;;10.00;68.30;;;;;;5012952;28;21240;-71
2024/03/01 09:15:43;;;;;;;23.70;11.53;;;10.00;68.50;;;;;;5012573;28;20429;-70
2024/03/01 09:18:36;;;;;;;20.77;10.90;;;9.90;68.50;;;;;;5012068;28;20416;-71
2024/03/01 09:21:02;;;;;;;23.33;11.10;;;9.90;68.90;;;;;;5005486;28;20503;-71
2024/03/01 09:23:27;;;;;;;21.50;11.23;;;9.90;68.90;;;;;;5012959;28;20453;-70
2024/03/01 09:26:02;;;;;;;22.00;10.90;;;10.00;69.10;;;;;;5012831;28;20185;-71
2024/03/01 09:28:28;;;;;;;20.37;9.83;;;10.10;69.10;;;;;;5010699;28;20194;-72
2024/03/01 09:30:55;;;;;;;23.63;11.30;;;10.00;69.90;;;;;;5009508;28;20514;-72
2024/03/01 09:33:22;;;;;;;21.30;10.53;;;10.00;70.80;;;;;;5012212;28;20413;-72
2024/03/01 09:35:51;;;;;;;21.73;10.10;;;9.90;71.80;;;;;;5012230;28;20500;-72
2024/03/01 09:38:20;;;;;;;20.63;10.07;;;10.00;72.10;;;;;;5012724;28;20433;-70
2024/03/01 09:40:49;;;;;;;21.27;9.63;;;9.90;73.00;;;;;;5006479;28;20465;-71
2024/03/01 09:43:42;;;;;;;22.80;10.27;;;9.70;73.30;;;;;;5011776;28;20433;-71
2024/03/01 09:46:45;;;;;;;16.40;8.50;;;9.70;73.90;;;;;;5011235;28;20449;-71
2024/03/01 09:49:30;;;;;;;21.23;9.70;;;9.70;74.30;;;;;;5008003;28;20436;-72
2024/03/01 09:52:29;;;;;;;18.90;8.43;;;9.50;75.40;;;;;;5008623;28;20555;-71
2024/03/01 09:55:13;;;;;;;18.43;8.87;;;9.40;76.20;;;;;;5016204;28;20507;-70
2024/03/01 09:58:07;;;;;;;20.93;9.30;;;9.40;77.10;;;;;;5013752;28;20444;-72
2024/03/01 10:00:41;;;;;;;21.93;9.17;;;9.40;77.30;;;;;;5010421;28;20433;-71
2024/03/01 10:03:28;;;;;;;23.50;8.90;;;9.30;77.70;;;;;;5013615;28;20491;-71
2024/03/01 10:06:02;;;;;;;20.00;9.80;;;9.30;78.30;;;;;;5012934;28;20842;-72
2024/03/01 10:08:49;;;;;;;20.30;8.83;;;9.20;79.00;;;;;;5012423;28;20413;-72
2024/03/01 10:11:29;;;;;;;22.07;10.07;;;9.30;79.50;;;;;;5005584;28;20488;-71
2024/03/01 10:14:33;;;;;;;23.63;9.40;;;9.30;79.50;;;;;;5013549;28;20456;-71
2024/03/01 10:17:12;;;;;;;16.73;8.43;;;9.30;79.60;;;;;;4999347;28;20432;-72
2024/03/01 10:19:41;;;;;;;15.10;8.03;;;9.20;80.30;;;;;;5007185;28;20413;-72
2024/03/01 10:22:24;;;;;;;20.30;9.67;;;9.20;80.60;;;;;;5008064;28;20965;-72
2024/03/01 10:25:24;;;;;;;18.57;8.20;;;9.40;80.90;;;;;;5009755;28;20447;-73
2024/03/01 10:27:53;;;;;;;25.80;9.20;;;9.50;81.10;;;;;;5009820;28;20872;-70
2024/03/01 10:30:28;;;;;;;17.00;8.43;;;9.70;80.50;;;;;;5009929;28;20530;-71
2024/03/01 10:33:23;;;;;;;18.10;8.73;;;9.80;79.50;;;;;;5007523;28;20519;-71
2024/03/01 10:35:52;;;;;;;13.90;7.77;;;9.90;79.60;;;;;;5005475;28;20787;-70
2024/03/01 10:38:37;;;;;;;17.97;7.83;;;9.90;78.90;;;;;;5008155;28;20409;-72
2024/03/01 10:41:44;;;;;;;14.13;7.57;;;9.90;79.00;;;;;;5003608;28;20484;-72
2024/03/01 10:44:17;;;;;;;15.40;7.17;;;10.10;79.50;;;;;;4971262;28;20429;-72
2024/03/01 10:46:58;;;;;;;13.30;7.13;;;10.30;78.10;;;;;;5014051;28;20494;-72
2024/03/01 10:49:48;;;;;;;15.53;7.70;;;10.40;78.10;;;;;;5011020;28;20445;-72
2024/03/01 10:52:17;;;;;;;18.70;8.00;;;10.50;78.30;;;;;;5009646;28;20469;-71
2024/03/01 10:54:50;;;;;;;19.70;8.60;;;10.50;78.40;;;;;;5010730;28;20776;-71
2024/03/01 10:57:19;;;;;;;18.60;8.50;;;10.40;77.60;;;;;;5007962;28;20512;-70
2024/03/01 11:00:06;;;;;;;17.77;8.27;;;10.40;78.10;;;;;;5010151;28;20417;-71
2024/03/01 11:02:50;;;;;;;18.87;8.93;;;10.30;78.60;;;;;;5008010;28;20519;-70
2024/03/01 11:05:36;;;;;;;16.20;8.47;;;10.30;78.90;;;;;;5011222;28;20427;-72
2024/03/01 11:08:15;;;;;;;14.03;8.30;;;10.20;79.20;;;;;;5005811;28;20409;-71
2024/03/01 11:11:20;;;;;;;15.37;8.10;;;10.40;78.90;;;;;;5007922;28;20564;-70
2024/03/01 11:13:49;;;;;;;18.03;9.47;;;10.40;79.00;;;;;;5005548;28;20452;-72
2024/03/01 11:16:20;;;;;;;13.70;8.10;;;10.50;79.60;;;;;;5010673;28;20420;-71
2024/03/01 11:18:50;;;;;;;17.73;8.13;;;10.40;79.60;;;;;;5010825;28;20429;-71
2024/03/01 11:21:19;;;;;;;17.03;8.33;;;10.40;79.90;;;;;;5007747;28;20468;-71
2024/03/01 11:24:08;;;;;;;15.23;8.43;;;10.40;79.70;;;;;;5011216;28;20425;-71
2024/03/01 11:26:43;;;;;;;17.50;8.57;;;10.30;79.60;;;;;;5010162;28;20405;-70
2024/03/01 11:29:31;;;;;;;15.27;7.87;;;10.40;79.30;;;;;;4999806;28;20456;-72
2024/03/01 11:32:16;;;;;;;13.93;7.70;;;10.50;79.90;;;;;;5006990;28;20468;-72
2024/03/01 11:34:47;;;;;;;15.03;7.33;;;10.60;79.50;;;;;;5008368;28;20550;-71
2024/03/01 11:37:32;;;;;;;15.23;7.57;;;10.70;78.90;;;;;;5012651;28;20896;-71
2024/03/01 11:40:30;;;;;;;15.53;8.00;;;10.80;78.40;;;;;;5009740;28;20417;-70
2024/03/01 11:43:24;;;;;;;20.97;7.37;;;10.80;78.00;;;;;;4973264;28;20433;-71
2024/03/01 11:45:52;;;;;;;10.97;6.70;;;11.00;77.40;;;;;;5010313;28;20420;-70
2024/03/01 11:48:33;;;;;;;16.27;7.60;;;11.00;77.60;;;;;;5009457;28;20475;-70
2024/03/01 11:51:27;;;;;;;13.03;7.13;;;11.10;76.50;;;;;;5001829;28;20484;-71
2024/03/01 11:54:23;;;;;;;15.80;6.90;;;11.30;77.00;;;;;;5012533;28;20450;-70
2024/03/01 11:57:02;;;;;;;13.43;6.33;;;11.50;76.20;;;;;;5014968;28;20432;-71
2024/03/01 11:59:47;;;;;;;14.70;8.00;;;11.70;74.80;;;;;;5013986;28;20420;-72
2024/03/01 12:02:37;;;;;;;12.43;6.20;;;11.90;74.00;;;;;;5010678;28;20466;-72
2024/03/01 12:05:29;;;;;;;13.17;6.73;;;12.00;73.60;;;;;;5009600;28;20439;-71
2024/03/01 12:08:22;;;;;;;13.03;6.00;;;12.10;73.50;;;;;;5013762;28;20490;-70
2024/03/01 12:11:06;;;;;;;11.27;6.47;;;12.10;71.80;;;;;;5010477;28;20488;-71
2024/03/01 12:13:36;;;;;;;14.40;6.00;;;12.00;71.70;;;;;;5013396;28;20937;-70
2024/03/01 12:16:08;;;;;;;13.90;6.60;;;12.00;71.70;;;;;;5013853;28;20417;-71
2024/03/01 12:18:36;;;;;;;14.83;6.70;;;12.10;71.70;;;;;;5013349;28;20829;-71
2024/03/01 12:21:21;;;;;;;12.67;6.00;;;12.10;71.30;;;;;;5010573;28;20452;-70
2024/03/01 12:24:02;;;;;;;12.60;6.53;;;12.10;71.00;;;;;;5011906;28;20428;-72
2024/03/01 12:26:40;;;;;;;12.03;6.10;;;12.10;71.00;;;;;;5012261;28;20417;-73
2024/03/01 12:29:24;;;;;;;21.27;6.70;;;12.10;71.00;;;;;;5014067;28;20420;-71
2024/03/01 12:32:06;;;;;;;11.60;5.20;;;12.10;70.70;;;;;;5004977;28;20480;-71
2024/03/01 12:34:54;;;;;;;10.73;5.87;;;12.10;70.70;;;;;;5024163;28;20428;-71
2024/03/01 12:37:43;;;;;;;12.83;6.30;;;12.00;70.50;;;;;;5011485;28;20421;-70
2024/03/01 12:40:18;;;;;;;10.20;5.63;;;11.80;71.00;;;;;;5012868;28;20805;-72
2024/03/01 12:43:00;;;;;;;10.77;5.33;;;11.90;70.80;;;;;;5011145;28;20463;-71
2024/03/01 12:46:03;;;;;;;10.63;6.10;;;11.90;71.10;;;;;;5015773;28;20415;-71
2024/03/01 12:48:38;;;;;;;17.93;5.87;;;12.00;70.40;;;;;;5011827;28;20437;-71
2024/03/01 12:51:16;;;;;;;13.30;6.20;;;12.10;70.80;;;;;;5005583;28;20484;-73
2024/03/01 12:54:03;;;;;;;14.50;6.13;;;11.90;70.70;;;;;;5010020;28;20928;-71
2024/03/01 12:56:57;;;;;;;10.60;5.30;;;11.90;71.10;;;;;;5014096;28;20470;-70